createdAt,value
2022-08-03T00:00:55.012Z,69.92
2022-08-03T00:06:04.772Z,69.83
2022-08-03T00:11:08.031Z,69.78
2022-08-03T00:16:10.958Z,70.14
2022-08-03T00:21:13.666Z,70.23
2022-08-03T00:26:18.718Z,70.50
2022-08-03T00:31:23.098Z,70.64
2022-08-03T00:36:42.797Z,70.71
2022-08-03T00:41:45.465Z,70.83
2022-08-03T00:46:48.209Z,70.76
2022-08-03T00:51:51.311Z,70.75
2022-08-03T00:57:00.034Z,70.61
2022-08-03T01:02:03.259Z,70.90
2022-08-03T01:07:25.917Z,71.28
2022-08-03T01:12:31.713Z,71.32
2022-08-03T01:17:44.587Z,71.59
2022-08-03T01:23:28.985Z,71.46
2022-08-03T01:29:02.435Z,71.70
2022-08-03T01:34:09.309Z,71.86
2022-08-03T01:39:19.339Z,71.92
2022-08-03T01:44:29.786Z,71.87
2022-08-03T01:49:39.655Z,71.85
2022-08-03T01:54:45.664Z,71.87
2022-08-03T01:59:50.998Z,71.58
2022-08-03T02:04:56.999Z,71.79
2022-08-03T02:10:02.927Z,72.08
2022-08-03T02:15:07.288Z,71.91
2022-08-03T02:20:13.606Z,71.91
2022-08-03T02:25:16.557Z,71.94
2022-08-03T02:30:20.771Z,71.89
2022-08-03T02:35:26.517Z,71.91
2022-08-03T02:40:31.555Z,71.95
2022-08-03T02:45:36.825Z,72.14
2022-08-03T02:50:40.554Z,71.91
2022-08-03T02:55:45.989Z,71.99
2022-08-03T03:00:51.968Z,71.88
2022-08-03T03:05:57.659Z,71.88
2022-08-03T03:11:02.032Z,71.85
2022-08-03T03:16:06.467Z,71.87
2022-08-03T03:21:10.390Z,71.96
2022-08-03T03:26:15.466Z,72.16
2022-08-03T03:31:18.223Z,72.07
2022-08-03T03:36:20.955Z,72.05
2022-08-03T03:41:23.820Z,72.14
2022-08-03T03:46:26.803Z,72.25
2022-08-03T03:51:29.599Z,72.30
2022-08-03T03:56:32.999Z,72.38
2022-08-03T04:01:35.771Z,72.43
2022-08-03T04:06:56.992Z,72.41
2022-08-03T04:12:01.875Z,72.40
2022-08-03T04:17:09.418Z,72.44
2022-08-03T04:22:15.130Z,72.44
2022-08-03T04:27:22.510Z,72.56
2022-08-03T04:32:28.831Z,72.70
2022-08-03T04:37:48.179Z,73.01
2022-08-03T04:42:53.741Z,72.96
2022-08-03T04:47:57.770Z,73.00
2022-08-03T04:53:00.677Z,73.03
2022-08-03T04:58:05.127Z,73.13
2022-08-03T05:03:23.720Z,73.22
2022-08-03T05:08:27.826Z,73.14
2022-08-03T05:13:31.334Z,73.13
2022-08-03T05:18:34.186Z,72.93
2022-08-03T05:23:38.016Z,72.98
2022-08-03T05:28:51.373Z,72.94
2022-08-03T05:33:54.892Z,72.82
2022-08-03T05:39:02.452Z,72.53
2022-08-03T05:44:06.073Z,72.05
2022-08-03T05:49:08.845Z,71.67
2022-08-03T05:54:11.941Z,71.33
2022-08-03T05:59:36.962Z,70.95
2022-08-03T06:04:38.166Z,70.68
2022-08-03T06:10:33.627Z,70.19
2022-08-03T06:15:05.433Z,70.00
2022-08-03T06:20:11.042Z,69.25
2022-08-03T06:25:14.255Z,69.11
2022-08-03T06:30:21.059Z,68.29
2022-08-03T06:35:24.592Z,68.30
2022-08-03T06:40:31.381Z,68.67
2022-08-03T06:45:35.487Z,67.97
2022-08-03T06:50:41.577Z,65.22
2022-08-03T06:55:45.341Z,63.50
2022-08-03T07:00:48.180Z,61.04
2022-08-03T07:05:51.397Z,57.50
2022-08-03T07:10:54.612Z,54.31
2022-08-03T07:15:57.461Z,54.27
2022-08-03T07:21:00.150Z,54.93
2022-08-03T07:26:03.065Z,55.05
2022-08-03T07:31:05.772Z,53.92
2022-08-03T07:36:08.481Z,53.25
2022-08-03T07:41:11.672Z,53.23
2022-08-03T07:46:15.162Z,51.72
2022-08-03T07:51:17.884Z,50.15
2022-08-03T07:56:21.447Z,49.18
2022-08-03T08:01:24.316Z,48.56
2022-08-03T08:06:27.173Z,47.60
2022-08-03T08:11:29.929Z,47.18
2022-08-03T08:16:34.313Z,47.23
2022-08-03T08:21:53.982Z,46.97
2022-08-03T08:27:01.507Z,46.98
2022-08-03T08:32:04.937Z,47.02
2022-08-03T08:37:08.011Z,47.62
2022-08-03T08:42:10.718Z,47.02
2022-08-03T08:47:14.871Z,46.51
2022-08-03T08:52:29.478Z,46.50
2022-08-03T08:57:43.102Z,46.52
2022-08-03T09:02:47.092Z,45.83
2022-08-03T09:07:50.283Z,44.87
2022-08-03T09:12:53.311Z,44.10
2022-08-03T09:17:58.106Z,43.35
2022-08-03T09:23:24.691Z,43.06
2022-08-03T09:28:59.916Z,42.84
2022-08-03T09:34:01.240Z,41.53
2022-08-03T09:39:06.570Z,40.48
2022-08-03T09:44:24.472Z,39.82
2022-08-03T09:49:28.650Z,39.65
2022-08-03T09:54:32.527Z,38.77
2022-08-03T09:59:35.436Z,37.38
2022-08-03T10:04:48.732Z,37.22
2022-08-03T10:10:31.302Z,37.87
2022-08-03T10:16:23.840Z,38.20
2022-08-03T10:20:54.658Z,37.14
2022-08-03T10:26:01.975Z,37.35
2022-08-03T10:31:07.940Z,37.13
2022-08-03T10:36:13.577Z,35.92
2022-08-03T10:41:20.027Z,35.74
2022-08-03T10:46:23.001Z,36.17
2022-08-03T10:51:30.617Z,34.66
2022-08-03T10:56:51.783Z,34.47
2022-08-03T11:02:00.121Z,33.70
2022-08-03T11:07:15.932Z,34.21
2022-08-03T11:12:30.608Z,33.86
2022-08-03T11:17:46.117Z,33.40
2022-08-03T11:23:01.156Z,33.36
2022-08-03T11:28:22.842Z,33.34
2022-08-03T11:33:31.939Z,33.97
2022-08-03T11:38:34.673Z,33.10
2022-08-03T11:43:37.737Z,33.10
2022-08-03T11:48:45.513Z,32.65
2022-08-03T11:53:53.077Z,32.36
2022-08-03T11:59:18.194Z,32.31
2022-08-03T12:04:21.065Z,32.49
2022-08-03T12:09:23.839Z,32.61
2022-08-03T12:14:49.019Z,32.24
2022-08-03T12:19:51.274Z,32.27
2022-08-03T12:24:54.302Z,32.27
2022-08-03T12:29:59.378Z,32.12
2022-08-03T12:35:04.628Z,31.52
2022-08-03T12:40:13.219Z,31.49
2022-08-03T12:45:20.295Z,30.66
2022-08-03T12:50:35.851Z,30.59
2022-08-03T12:55:56.994Z,30.16
2022-08-03T13:01:09.152Z,30.16
2022-08-03T13:06:17.678Z,30.10
2022-08-03T13:11:22.819Z,29.28
2022-08-03T13:16:45.501Z,29.63
2022-08-03T13:22:03.228Z,29.79
2022-08-03T13:28:01.661Z,30.25
2022-08-03T13:32:31.445Z,29.57
2022-08-03T13:37:34.335Z,29.90
2022-08-03T13:42:38.994Z,30.63
2022-08-03T13:47:42.081Z,30.94
2022-08-03T13:52:46.483Z,30.44
2022-08-03T13:58:11.466Z,30.05
2022-08-03T14:03:14.516Z,29.71
2022-08-03T14:08:18.578Z,30.02
2022-08-03T14:13:21.543Z,30.01
2022-08-03T14:18:28.872Z,29.70
2022-08-03T14:23:40.028Z,29.21
2022-08-03T14:28:42.721Z,29.22
2022-08-03T14:33:45.485Z,29.41
2022-08-03T14:38:48.335Z,28.82
2022-08-03T14:44:00.519Z,28.95
2022-08-03T14:50:38.377Z,29.65
2022-08-03T14:54:31.145Z,29.89
2022-08-03T14:59:55.666Z,29.98
2022-08-03T15:04:56.990Z,29.84
2022-08-03T15:09:59.716Z,30.26
2022-08-03T15:15:06.132Z,30.11
2022-08-03T15:20:25.505Z,30.53
2022-08-03T15:26:04.113Z,29.66
2022-08-03T15:30:56.319Z,29.58
2022-08-03T15:36:00.397Z,28.84
2022-08-03T15:41:03.203Z,28.42
2022-08-03T15:46:28.822Z,28.28
2022-08-03T15:51:28.946Z,28.13
2022-08-03T15:56:31.663Z,28.21
2022-08-03T16:01:34.877Z,28.29
2022-08-03T16:06:37.941Z,28.46
2022-08-03T16:11:40.646Z,28.25
2022-08-03T16:16:43.590Z,28.90
2022-08-03T16:21:48.250Z,29.38
2022-08-03T16:26:51.760Z,29.17
2022-08-03T16:31:54.459Z,29.97
2022-08-03T16:36:57.231Z,29.87
2022-08-03T16:42:01.717Z,29.17
2022-08-03T16:47:04.838Z,29.94
2022-08-03T16:52:07.700Z,30.18
2022-08-03T16:57:10.412Z,30.78
2022-08-03T17:02:27.268Z,30.88
2022-08-03T17:07:30.369Z,30.55
2022-08-03T17:12:33.347Z,31.13
2022-08-03T17:17:53.783Z,31.82
2022-08-03T17:23:34.694Z,32.69
2022-08-03T17:28:50.115Z,33.46
2022-08-03T17:34:01.352Z,32.97
2022-08-03T17:39:06.476Z,32.78
2022-08-03T17:44:15.687Z,33.24
2022-08-03T17:49:24.678Z,33.93
2022-08-03T17:55:51.521Z,34.62
2022-08-03T18:00:29.806Z,35.03
2022-08-03T18:06:11.466Z,35.58
2022-08-03T18:11:14.282Z,35.70
2022-08-03T18:16:24.804Z,35.82
2022-08-03T18:22:02.733Z,36.07
2022-08-03T18:26:53.576Z,36.36
2022-08-03T18:32:04.265Z,36.75
2022-08-03T18:37:12.242Z,36.98
2022-08-03T18:42:25.761Z,37.32
2022-08-03T18:47:50.969Z,37.22
2022-08-03T18:52:55.431Z,37.49
2022-08-03T18:58:19.824Z,37.57
2022-08-03T19:03:24.819Z,37.97
2022-08-03T19:08:33.401Z,38.14
2022-08-03T19:19:14.372Z,41.19
2022-08-03T19:24:23.322Z,41.98
2022-08-03T19:29:33.338Z,42.93
2022-08-03T19:34:54.161Z,43.89
2022-08-03T19:40:00.653Z,44.58
2022-08-03T19:45:11.303Z,45.66
2022-08-03T19:50:20.035Z,45.97
2022-08-03T19:55:23.808Z,46.63
2022-08-03T20:00:36.769Z,47.38
2022-08-03T20:05:51.901Z,47.92
2022-08-03T20:10:55.550Z,48.77
2022-08-03T20:15:58.388Z,49.25
2022-08-03T20:21:14.800Z,49.57
2022-08-03T20:26:20.357Z,50.04
2022-08-03T20:31:32.216Z,50.62
2022-08-03T20:36:39.108Z,51.16
2022-08-03T20:41:42.017Z,51.63
2022-08-03T20:46:53.169Z,52.28
2022-08-03T20:52:03.540Z,53.10
2022-08-03T20:57:09.577Z,53.32
2022-08-03T21:02:13.341Z,53.79
2022-08-03T21:07:24.434Z,54.15
2022-08-03T21:13:08.943Z,39.52
2022-08-03T21:13:19.059Z,54.49
2022-08-03T21:18:23.486Z,54.82
2022-08-03T21:23:39.981Z,55.10
2022-08-03T21:28:52.857Z,55.74
2022-08-03T21:34:04.147Z,56.22
2022-08-03T21:39:09.023Z,56.76
2022-08-03T21:44:11.961Z,57.19
2022-08-03T21:50:05.555Z,57.63
2022-08-03T21:54:42.174Z,57.55
2022-08-03T21:59:52.977Z,57.77
2022-08-03T22:04:57.297Z,58.07
2022-08-03T22:10:02.894Z,58.51
2022-08-03T22:15:08.849Z,58.80
2022-08-03T22:20:14.489Z,59.06
2022-08-03T22:25:17.557Z,59.41
2022-08-03T22:30:20.585Z,59.53
2022-08-03T22:35:26.054Z,59.61
2022-08-03T22:40:29.079Z,59.78
2022-08-03T22:46:06.014Z,60.46
2022-08-03T22:50:56.679Z,60.68
2022-08-03T22:55:59.683Z,61.01
2022-08-03T23:01:06.016Z,61.30
2022-08-03T23:06:09.332Z,61.32
2022-08-03T23:11:12.960Z,61.58
2022-08-03T23:16:29.299Z,61.60
2022-08-03T23:21:53.551Z,61.50
2022-08-03T23:26:56.686Z,61.67
2022-08-03T23:32:02.295Z,61.69
2022-08-03T23:37:05.833Z,61.85
2022-08-03T23:42:10.002Z,61.90
2022-08-03T23:47:14.036Z,61.73
2022-08-03T23:52:29.321Z,61.86
2022-08-03T23:57:52.401Z,61.83
